createdAt,value
2022-09-10T00:00:33.688Z,43.92
2022-09-10T00:01:33.739Z,52.99
2022-09-10T00:02:33.771Z,51.82
2022-09-10T00:03:33.661Z,51.00
2022-09-10T00:04:33.666Z,56.01
2022-09-10T00:05:33.643Z,51.40
2022-09-10T00:06:33.635Z,59.14
2022-09-10T00:07:33.632Z,47.63
2022-09-10T00:08:33.731Z,51.11
2022-09-10T00:09:33.634Z,50.20
2022-09-10T00:10:33.616Z,56.37
2022-09-10T00:11:33.596Z,48.86
2022-09-10T00:12:33.618Z,55.96
2022-09-10T00:13:33.585Z,58.96
2022-09-10T00:14:33.618Z,58.10
2022-09-10T00:15:33.592Z,47.97
2022-09-10T00:16:33.596Z,53.87
2022-09-10T00:17:33.556Z,54.92
2022-09-10T00:18:33.547Z,57.21
2022-09-10T00:19:33.540Z,56.74
2022-09-10T00:20:33.528Z,54.20
2022-09-10T00:21:33.530Z,55.01
2022-09-10T00:22:33.513Z,55.44
2022-09-10T00:23:33.508Z,48.81
2022-09-10T00:24:33.501Z,52.50
2022-09-10T00:25:33.490Z,52.51
2022-09-10T00:26:33.826Z,56.25
2022-09-10T00:27:33.471Z,56.30
2022-09-10T00:28:33.504Z,50.74
2022-09-10T00:29:33.459Z,48.28
2022-09-10T00:32:33.580Z,48.22
2022-09-10T00:33:33.595Z,60.08
2022-09-10T00:34:34.656Z,50.03
2022-09-10T00:35:34.652Z,51.61
2022-09-10T00:36:34.684Z,46.25
2022-09-10T00:37:34.631Z,48.66
2022-09-10T00:38:34.674Z,46.04
2022-09-10T00:39:34.676Z,51.23
2022-09-10T00:40:35.526Z,55.67
2022-09-10T00:41:34.596Z,49.39
2022-09-10T00:42:34.589Z,51.91
2022-09-10T00:43:34.581Z,53.50
2022-09-10T00:44:35.709Z,55.59
2022-09-10T00:45:35.632Z,54.12
2022-09-10T00:46:34.591Z,55.75
2022-09-10T00:47:34.559Z,54.60
2022-09-10T00:48:34.576Z,49.68
2022-09-10T00:49:34.543Z,43.90
2022-09-10T00:50:34.518Z,52.16
2022-09-10T00:51:34.514Z,52.82
2022-09-10T00:52:39.447Z,54.55
2022-09-10T00:53:36.504Z,57.23
2022-09-10T00:54:34.486Z,53.40
2022-09-10T00:55:34.478Z,51.22
2022-09-10T00:56:34.484Z,49.02
2022-09-10T00:57:34.476Z,54.50
2022-09-10T00:58:34.539Z,47.75
2022-09-10T00:59:34.461Z,45.04
2022-09-10T01:00:34.490Z,45.33
2022-09-10T01:01:34.550Z,49.82
2022-09-10T01:02:34.434Z,48.80
2022-09-10T01:03:34.421Z,55.78
2022-09-10T01:04:34.410Z,53.61
2022-09-10T01:05:34.409Z,53.52
2022-09-10T01:06:34.401Z,56.04
2022-09-10T01:07:34.399Z,55.62
2022-09-10T01:08:34.454Z,50.60
2022-09-10T01:09:34.375Z,41.05
2022-09-10T01:10:34.373Z,52.17
2022-09-10T01:11:34.944Z,46.38
2022-09-10T01:12:36.104Z,60.68
2022-09-10T01:13:35.356Z,42.62
2022-09-10T01:14:34.339Z,46.39
2022-09-10T01:15:34.332Z,52.13
2022-09-10T01:16:34.400Z,51.96
2022-09-10T01:17:34.369Z,47.53
2022-09-10T01:18:34.412Z,46.20
2022-09-10T01:19:34.310Z,55.41
2022-09-10T01:20:34.346Z,53.88
2022-09-10T01:21:35.031Z,59.17
2022-09-10T01:22:35.272Z,56.18
2022-09-10T01:23:34.272Z,49.27
2022-09-10T01:24:34.262Z,55.20
2022-09-10T01:25:34.241Z,50.82
2022-09-10T01:26:35.239Z,54.96
2022-09-10T01:27:34.231Z,52.97
2022-09-10T01:28:34.272Z,52.10
2022-09-10T01:29:34.232Z,50.69
2022-09-10T01:30:34.210Z,56.93
2022-09-10T01:31:34.289Z,54.77
2022-09-10T01:32:34.195Z,56.85
2022-09-10T01:33:34.197Z,55.96
2022-09-10T01:34:34.175Z,54.61
2022-09-10T01:35:34.175Z,52.55
2022-09-10T01:36:34.162Z,55.77
2022-09-10T01:37:34.162Z,47.21
2022-09-10T01:38:34.266Z,47.33
2022-09-10T01:39:34.230Z,56.41
2022-09-10T01:40:34.124Z,51.82
2022-09-10T01:41:34.118Z,50.81
2022-09-10T01:42:34.109Z,58.18
2022-09-10T01:43:34.111Z,43.86
2022-09-10T01:44:34.101Z,40.87
2022-09-10T01:45:34.144Z,52.42
2022-09-10T01:46:34.083Z,42.18
2022-09-10T01:47:34.072Z,52.66
2022-09-10T01:48:34.064Z,51.12
2022-09-10T01:49:34.059Z,49.52
2022-09-10T01:50:34.061Z,48.04
2022-09-10T01:51:34.034Z,40.66
2022-09-10T01:52:34.037Z,46.57
2022-09-10T01:53:34.026Z,56.29
2022-09-10T01:54:34.029Z,57.16
2022-09-10T01:55:34.004Z,47.38
2022-09-10T01:56:34.001Z,49.76
2022-09-10T01:57:33.989Z,53.29
2022-09-10T01:58:33.982Z,51.67
2022-09-10T01:59:33.978Z,55.10
2022-09-10T02:00:33.975Z,57.66
2022-09-10T02:01:33.974Z,58.21
2022-09-10T02:02:33.948Z,52.28
2022-09-10T02:03:33.941Z,61.65
2022-09-10T02:04:33.941Z,58.61
2022-09-10T02:05:33.928Z,51.35
2022-09-10T02:06:33.924Z,55.85
2022-09-10T02:07:33.908Z,54.48
2022-09-10T02:08:33.910Z,44.93
2022-09-10T02:09:33.903Z,57.43
2022-09-10T02:10:33.896Z,44.88
2022-09-10T02:11:33.885Z,44.78
2022-09-10T02:12:33.870Z,47.23
2022-09-10T02:13:33.871Z,49.51
2022-09-10T02:14:33.857Z,44.52
2022-09-10T02:15:33.860Z,53.18
2022-09-10T02:16:34.058Z,48.84
2022-09-10T02:17:33.831Z,46.46
2022-09-10T02:18:33.841Z,56.41
2022-09-10T02:19:33.816Z,47.38
2022-09-10T02:20:33.819Z,56.16
2022-09-10T02:21:33.808Z,54.82
2022-09-10T02:22:33.834Z,52.84
2022-09-10T02:23:33.785Z,46.76
2022-09-10T02:24:33.785Z,49.32
2022-09-10T02:25:33.776Z,54.86
2022-09-10T02:26:33.772Z,53.66
2022-09-10T02:27:33.761Z,51.04
2022-09-10T02:28:33.758Z,52.81
2022-09-10T02:29:33.744Z,53.43
2022-09-10T02:30:33.736Z,52.02
2022-09-10T02:31:33.762Z,49.99
2022-09-10T02:32:33.731Z,47.48
2022-09-10T02:33:33.715Z,45.59
2022-09-10T02:34:34.564Z,42.60
2022-09-10T02:35:33.701Z,46.47
2022-09-10T02:36:33.704Z,54.04
2022-09-10T02:37:34.479Z,50.96
2022-09-10T02:38:33.677Z,48.33
2022-09-10T02:39:33.694Z,50.05
2022-09-10T02:40:33.648Z,48.41
2022-09-10T02:41:33.669Z,45.21
2022-09-10T02:42:33.636Z,57.47
2022-09-10T02:43:34.556Z,55.04
2022-09-10T02:44:33.621Z,48.61
2022-09-10T02:45:33.665Z,54.94
2022-09-10T02:46:33.604Z,45.14
2022-09-10T02:47:33.601Z,50.34
2022-09-10T02:48:33.590Z,51.84
2022-09-10T02:49:33.584Z,50.07
2022-09-10T02:50:33.581Z,45.72
2022-09-10T02:51:33.570Z,56.11
2022-09-10T02:52:33.557Z,49.30
2022-09-10T02:53:33.545Z,42.30
2022-09-10T02:54:33.538Z,56.28
2022-09-10T02:55:33.529Z,46.61
2022-09-10T02:56:33.531Z,53.09
2022-09-10T02:57:33.528Z,57.24
2022-09-10T02:58:33.513Z,52.47
2022-09-10T02:59:33.501Z,39.32
2022-09-10T03:00:33.494Z,47.74
2022-09-10T03:01:33.486Z,54.09
2022-09-10T03:02:33.492Z,51.90
2022-09-10T03:03:33.475Z,53.22
2022-09-10T03:04:33.462Z,41.42
2022-09-10T03:05:33.490Z,60.56
2022-09-10T03:06:33.449Z,54.34
2022-09-10T03:07:33.445Z,56.47
2022-09-10T03:08:33.430Z,52.00
2022-09-10T03:09:33.426Z,54.04
2022-09-10T03:10:33.423Z,57.55
2022-09-10T03:11:33.408Z,55.88
2022-09-10T03:12:33.400Z,49.01
2022-09-10T03:13:33.400Z,54.56
2022-09-10T03:14:33.378Z,54.22
2022-09-10T03:15:33.373Z,59.98
2022-09-10T03:16:33.426Z,50.83
2022-09-10T03:17:33.355Z,53.42
2022-09-10T03:18:33.357Z,46.91
2022-09-10T03:19:33.336Z,58.70
2022-09-10T03:20:33.332Z,56.51
2022-09-10T03:21:33.324Z,55.59
2022-09-10T03:22:33.319Z,50.79
2022-09-10T03:23:33.312Z,54.49
2022-09-10T03:24:33.304Z,60.32
2022-09-10T03:25:33.298Z,57.51
2022-09-10T03:26:33.286Z,56.55
2022-09-10T03:27:33.272Z,57.08
2022-09-10T03:28:33.275Z,58.85
2022-09-10T03:29:33.260Z,59.65
2022-09-10T03:30:33.250Z,59.35
2022-09-10T03:31:33.271Z,55.74
2022-09-10T03:32:33.235Z,53.89
2022-09-10T03:33:33.235Z,59.42
2022-09-10T03:34:33.221Z,55.81
2022-09-10T03:35:33.206Z,61.62
2022-09-10T03:36:33.200Z,57.56
2022-09-10T03:37:33.190Z,53.45
2022-09-10T03:38:33.184Z,54.94
2022-09-10T03:39:33.232Z,59.81
2022-09-10T03:40:33.167Z,57.42
2022-09-10T03:41:33.165Z,50.90
2022-09-10T03:42:33.149Z,56.24
2022-09-10T03:43:33.147Z,59.18
2022-09-10T03:44:33.138Z,57.08
2022-09-10T03:45:33.209Z,52.76
2022-09-10T03:46:33.135Z,45.61
2022-09-10T03:47:33.111Z,56.12
2022-09-10T03:48:33.102Z,51.82
2022-09-10T03:49:33.091Z,49.39
2022-09-10T03:50:33.101Z,54.25
2022-09-10T03:51:33.083Z,60.16
2022-09-10T03:52:33.074Z,62.62
2022-09-10T03:53:33.059Z,60.44
2022-09-10T03:54:33.058Z,57.52
2022-09-10T03:55:33.081Z,57.51
2022-09-10T03:56:33.045Z,58.80
2022-09-10T03:57:33.038Z,55.12
2022-09-10T03:58:33.026Z,58.62
2022-09-10T03:59:33.014Z,55.27
2022-09-10T04:00:33.007Z,59.88
2022-09-10T04:01:33.003Z,55.93
2022-09-10T04:02:33.000Z,55.69
2022-09-10T04:03:32.990Z,59.42
2022-09-10T04:04:32.976Z,56.08
2022-09-10T04:05:32.967Z,55.03
2022-09-10T04:06:32.958Z,53.58
2022-09-10T04:07:32.950Z,51.76
2022-09-10T04:08:32.958Z,53.26
2022-09-10T04:09:32.931Z,58.30
2022-09-10T04:10:32.925Z,59.99
2022-09-10T04:11:32.916Z,56.46
2022-09-10T04:12:32.919Z,58.49
2022-09-10T04:13:33.583Z,57.40
2022-09-10T04:14:33.898Z,60.76
2022-09-10T04:15:32.883Z,50.21
2022-09-10T04:16:32.886Z,54.56
2022-09-10T04:17:32.869Z,56.76
2022-09-10T04:18:32.896Z,59.26
2022-09-10T04:19:32.852Z,50.96
2022-09-10T04:20:32.845Z,57.88
2022-09-10T04:21:32.835Z,54.27
2022-09-10T04:22:32.831Z,57.27
2022-09-10T04:23:32.837Z,57.91
2022-09-10T04:24:32.813Z,59.14
2022-09-10T04:25:32.798Z,59.61
2022-09-10T04:26:32.795Z,55.09
2022-09-10T04:27:32.781Z,57.01
2022-09-10T04:28:32.798Z,55.07
2022-09-10T04:29:32.779Z,52.54
2022-09-10T04:30:32.768Z,57.27
2022-09-10T04:31:32.788Z,62.26
2022-09-10T04:32:32.749Z,62.02
2022-09-10T04:33:32.739Z,54.38
2022-09-10T04:34:32.737Z,61.04
2022-09-10T04:35:32.721Z,54.73
2022-09-10T04:36:32.719Z,57.22
2022-09-10T04:37:32.724Z,56.08
2022-09-10T04:38:32.703Z,56.64
2022-09-10T04:39:32.737Z,61.52
2022-09-10T04:40:32.695Z,59.83
2022-09-10T04:41:33.602Z,59.28
2022-09-10T04:42:32.673Z,67.72
2022-09-10T04:43:32.664Z,63.40
2022-09-10T04:44:32.653Z,55.78
2022-09-10T04:45:32.683Z,56.26
2022-09-10T04:46:32.636Z,55.17
2022-09-10T04:47:32.639Z,53.69
2022-09-10T04:48:32.646Z,57.81
2022-09-10T04:49:32.616Z,56.68
2022-09-10T04:50:32.608Z,56.59
2022-09-10T04:51:32.595Z,59.04
2022-09-10T04:52:32.586Z,64.63
2022-09-10T04:53:32.600Z,58.20
2022-09-10T04:54:32.573Z,60.33
2022-09-10T04:55:32.564Z,62.35
2022-09-10T04:56:32.556Z,63.84
2022-09-10T04:57:32.552Z,70.19
2022-09-10T04:58:36.654Z,57.86
2022-09-10T04:59:34.541Z,56.39
2022-09-10T05:00:32.530Z,59.99
2022-09-10T05:01:32.523Z,55.73
2022-09-10T05:02:32.549Z,57.28
2022-09-10T05:03:32.519Z,60.80
2022-09-10T05:04:34.023Z,63.02
2022-09-10T05:05:32.491Z,63.89
2022-09-10T05:06:32.478Z,60.94
2022-09-10T05:07:32.504Z,60.46
2022-09-10T05:08:32.464Z,63.49
2022-09-10T05:09:32.459Z,63.54
2022-09-10T05:10:32.445Z,57.46
2022-09-10T05:11:32.462Z,57.56
2022-09-10T05:12:32.430Z,55.10
2022-09-10T05:13:32.423Z,55.53
2022-09-10T05:14:32.427Z,54.53
2022-09-10T05:15:32.407Z,58.14
2022-09-10T05:16:32.432Z,57.34
2022-09-10T05:17:32.387Z,60.29
2022-09-10T05:18:32.381Z,61.02
2022-09-10T05:19:32.388Z,53.21
2022-09-10T05:20:32.364Z,62.89
2022-09-10T05:21:32.366Z,62.66
2022-09-10T05:22:38.432Z,67.51
2022-09-10T05:23:34.361Z,70.60
2022-09-10T05:24:32.334Z,61.89
2022-09-10T05:25:32.330Z,60.52
2022-09-10T05:26:32.319Z,63.75
2022-09-10T05:27:32.308Z,58.66
2022-09-10T05:28:32.302Z,57.36
2022-09-10T05:29:32.293Z,62.70
2022-09-10T05:30:32.288Z,60.48
2022-09-10T05:31:32.290Z,56.57
2022-09-10T05:32:32.259Z,59.54
2022-09-10T05:33:33.254Z,58.59
2022-09-10T05:34:32.254Z,61.98
2022-09-10T05:35:32.251Z,62.52
2022-09-10T05:36:32.233Z,62.73
2022-09-10T05:37:32.224Z,61.43
2022-09-10T05:38:32.214Z,60.88
2022-09-10T05:39:32.342Z,61.25
2022-09-10T05:40:32.207Z,62.20
2022-09-10T05:41:32.190Z,60.70
2022-09-10T05:42:32.181Z,59.39
2022-09-10T05:43:32.176Z,59.45
2022-09-10T05:44:32.167Z,60.70
2022-09-10T05:45:32.193Z,62.52
2022-09-10T05:46:32.151Z,59.21
2022-09-10T05:47:32.144Z,59.75
2022-09-10T05:48:32.174Z,59.67
2022-09-10T05:49:32.129Z,59.45
2022-09-10T05:50:32.129Z,60.17
2022-09-10T05:51:32.119Z,61.84
2022-09-10T05:52:32.103Z,60.48
2022-09-10T05:53:32.110Z,58.30
2022-09-10T05:54:32.088Z,60.65
2022-09-10T05:55:32.078Z,60.16
2022-09-10T05:56:32.079Z,60.37
2022-09-10T05:57:32.064Z,59.26
2022-09-10T05:58:32.092Z,63.28
2022-09-10T05:59:32.050Z,59.54
2022-09-10T06:00:32.043Z,61.92
2022-09-10T06:01:32.054Z,62.45
2022-09-10T06:02:32.067Z,61.88
2022-09-10T06:03:32.023Z,56.29
2022-09-10T06:04:32.015Z,60.58
2022-09-10T06:05:32.005Z,60.06
2022-09-10T06:06:31.994Z,55.90
2022-09-10T06:07:31.988Z,58.33
2022-09-10T06:08:32.037Z,61.23
2022-09-10T06:09:31.975Z,63.37
2022-09-10T06:10:32.006Z,59.47
2022-09-10T06:11:31.948Z,57.58
2022-09-10T06:12:32.949Z,63.33
2022-09-10T06:13:32.550Z,60.14
2022-09-10T06:14:31.931Z,58.11
2022-09-10T06:15:31.926Z,59.58
2022-09-10T06:16:31.943Z,61.57
2022-09-10T06:17:31.908Z,59.41
2022-09-10T06:18:31.908Z,59.20
2022-09-10T06:19:31.899Z,62.44
2022-09-10T06:20:31.885Z,65.86
2022-09-10T06:21:31.876Z,63.82
2022-09-10T06:22:31.871Z,59.57
2022-09-10T06:23:31.922Z,58.75
2022-09-10T06:24:31.857Z,62.21
2022-09-10T06:25:31.846Z,62.84
2022-09-10T06:26:31.839Z,60.27
2022-09-10T06:27:31.966Z,64.71
2022-09-10T06:28:31.855Z,60.33
2022-09-10T06:29:31.822Z,60.21
2022-09-10T06:30:31.834Z,63.43
2022-09-10T06:31:31.801Z,62.37
2022-09-10T06:32:31.785Z,63.80
2022-09-10T06:33:31.785Z,61.92
2022-09-10T06:34:31.771Z,59.78
2022-09-10T06:35:31.765Z,62.56
2022-09-10T06:36:31.752Z,62.74
2022-09-10T06:37:31.835Z,60.25
2022-09-10T06:38:31.797Z,64.04
2022-09-10T06:39:31.734Z,60.27
2022-09-10T06:40:32.157Z,58.94
2022-09-10T06:41:31.721Z,57.80
2022-09-10T06:42:31.740Z,60.06
2022-09-10T06:43:31.762Z,61.51
2022-09-10T06:44:31.695Z,62.69
2022-09-10T06:45:31.712Z,61.22
2022-09-10T06:47:10.727Z,61.53
2022-09-10T06:48:38.604Z,59.32
2022-09-10T06:49:33.657Z,60.24
2022-09-10T06:50:31.659Z,59.28
2022-09-10T06:51:31.642Z,66.13
2022-09-10T06:52:31.637Z,62.34
2022-09-10T06:53:31.628Z,63.00
2022-09-10T06:54:31.614Z,61.84
2022-09-10T06:55:31.625Z,62.81
2022-09-10T06:56:31.595Z,63.05
2022-09-10T06:57:31.594Z,60.72
2022-09-10T06:58:31.685Z,61.22
2022-09-10T06:59:31.581Z,60.94
2022-09-10T07:00:31.564Z,63.39
2022-09-10T07:01:31.646Z,62.08
2022-09-10T07:02:32.120Z,63.12
2022-09-10T07:03:31.554Z,63.40
2022-09-10T07:04:31.550Z,65.40
2022-09-10T07:05:31.533Z,63.50
2022-09-10T07:06:31.535Z,60.74
2022-09-10T07:07:31.511Z,62.10
2022-09-10T07:08:31.524Z,62.65
2022-09-10T07:09:31.495Z,62.11
2022-09-10T07:10:31.502Z,59.09
2022-09-10T07:11:31.491Z,60.30
2022-09-10T07:12:31.474Z,61.70
2022-09-10T07:13:31.460Z,60.75
2022-09-10T07:14:32.456Z,60.17
2022-09-10T07:15:31.483Z,61.96
2022-09-10T07:16:31.467Z,60.93
2022-09-10T07:17:32.152Z,63.67
2022-09-10T07:18:32.423Z,65.19
2022-09-10T07:19:31.421Z,65.11
2022-09-10T07:20:31.410Z,62.66
2022-09-10T07:21:31.406Z,63.49
2022-09-10T07:22:31.392Z,60.59
2022-09-10T07:23:31.382Z,61.79
2022-09-10T07:24:31.376Z,62.36
2022-09-10T07:25:31.372Z,62.06
2022-09-10T07:26:31.372Z,62.06
2022-09-10T07:27:31.355Z,63.40
2022-09-10T07:28:31.385Z,60.91
2022-09-10T07:29:31.439Z,64.76
2022-09-10T07:30:31.341Z,62.62
2022-09-10T07:31:31.330Z,63.31
2022-09-10T07:32:31.311Z,63.21
2022-09-10T07:33:31.301Z,62.26
2022-09-10T07:34:31.299Z,62.65
2022-09-10T07:35:31.312Z,60.32
2022-09-10T07:36:31.281Z,64.88
2022-09-10T07:37:31.278Z,62.53
2022-09-10T07:38:31.276Z,62.86
2022-09-10T07:39:31.253Z,62.12
2022-09-10T07:40:31.255Z,61.62
2022-09-10T07:41:31.251Z,62.84
2022-09-10T07:42:31.234Z,62.46
2022-09-10T07:43:31.225Z,62.16
2022-09-10T07:44:31.221Z,62.79
2022-09-10T07:45:31.241Z,61.53
2022-09-10T07:46:31.198Z,60.87
2022-09-10T07:47:31.189Z,60.91
2022-09-10T07:48:31.218Z,62.83
2022-09-10T07:49:31.174Z,61.77
2022-09-10T07:50:31.171Z,64.34
2022-09-10T07:51:31.161Z,70.04
2022-09-10T07:52:31.158Z,61.85
2022-09-10T07:53:31.654Z,62.88
2022-09-10T07:54:31.147Z,64.01
2022-09-10T07:55:31.139Z,62.26
2022-09-10T07:56:31.131Z,62.96
2022-09-10T07:57:31.116Z,62.44
2022-09-10T07:58:32.182Z,62.46
2022-09-10T07:59:31.100Z,63.16
2022-09-10T08:00:31.088Z,64.17
2022-09-10T08:01:31.113Z,61.62
2022-09-10T08:02:31.095Z,62.40
2022-09-10T08:03:31.067Z,60.70
2022-09-10T08:04:35.881Z,60.35
2022-09-10T08:05:33.047Z,62.99
2022-09-10T08:06:31.044Z,61.98
2022-09-10T08:07:31.036Z,61.63
2022-09-10T08:08:31.032Z,62.61
2022-09-10T08:09:31.014Z,63.87
2022-09-10T08:10:31.006Z,61.77
2022-09-10T08:11:30.998Z,61.76
2022-09-10T08:12:30.993Z,63.56
2022-09-10T08:13:30.988Z,63.24
2022-09-10T08:14:30.973Z,59.26
2022-09-10T08:15:30.976Z,62.07
2022-09-10T08:16:30.970Z,62.92
2022-09-10T08:17:31.039Z,61.55
2022-09-10T08:18:30.969Z,64.57
2022-09-10T08:19:30.946Z,63.87
2022-09-10T08:20:30.938Z,66.18
2022-09-10T08:21:30.929Z,65.54
2022-09-10T08:22:30.927Z,65.25
2022-09-10T08:23:30.904Z,66.96
2022-09-10T08:24:30.894Z,63.99
2022-09-10T08:25:30.899Z,62.34
2022-09-10T08:26:30.883Z,63.80
2022-09-10T08:27:31.676Z,63.48
2022-09-10T08:28:30.868Z,60.99
2022-09-10T08:29:30.855Z,64.65
2022-09-10T08:30:30.860Z,64.16
2022-09-10T08:31:30.838Z,62.84
2022-09-10T08:32:30.845Z,64.27
2022-09-10T08:33:30.841Z,64.71
2022-09-10T08:34:30.813Z,63.03
2022-09-10T08:35:30.815Z,61.65
2022-09-10T08:36:30.805Z,63.51
2022-09-10T08:37:30.797Z,63.33
2022-09-10T08:38:30.791Z,62.25
2022-09-10T08:39:30.776Z,62.06
2022-09-10T08:40:30.779Z,65.30
2022-09-10T08:41:30.764Z,61.92
2022-09-10T08:42:30.764Z,63.66
2022-09-10T08:43:30.756Z,61.36
2022-09-10T08:44:30.741Z,62.73
2022-09-10T08:45:30.772Z,63.83
2022-09-10T08:46:30.721Z,63.89
2022-09-10T08:47:30.739Z,63.54
2022-09-10T08:48:30.715Z,65.56
2022-09-10T08:49:30.696Z,64.16
2022-09-10T08:50:30.692Z,61.87
2022-09-10T08:51:30.688Z,62.98
2022-09-10T08:52:30.750Z,64.25
2022-09-10T08:53:30.666Z,63.84
2022-09-10T08:54:30.666Z,64.80
2022-09-10T08:55:30.653Z,62.44
2022-09-10T08:56:30.675Z,64.07
2022-09-10T08:57:30.661Z,62.25
2022-09-10T08:58:30.634Z,63.25
2022-09-10T08:59:30.622Z,63.17
2022-09-10T09:00:30.617Z,70.88
2022-09-10T09:01:30.707Z,65.70
2022-09-10T09:02:47.832Z,64.43
2022-09-10T09:03:32.601Z,63.07
2022-09-10T09:04:30.589Z,64.86
2022-09-10T09:05:30.575Z,68.95
2022-09-10T09:06:30.568Z,63.28
2022-09-10T09:07:30.566Z,61.82
2022-09-10T09:08:30.563Z,60.31
2022-09-10T09:09:31.199Z,62.93
2022-09-10T09:10:30.529Z,63.65
2022-09-10T09:11:30.537Z,61.44
2022-09-10T09:12:30.525Z,63.63
2022-09-10T09:13:30.512Z,61.87
2022-09-10T09:14:30.503Z,63.50
2022-09-10T09:15:30.542Z,64.64
2022-09-10T09:16:30.482Z,62.80
2022-09-10T09:17:31.499Z,63.05
2022-09-10T09:18:30.480Z,65.28
2022-09-10T09:19:30.460Z,63.69
2022-09-10T09:20:30.458Z,63.37
2022-09-10T09:21:30.452Z,64.86
2022-09-10T09:22:30.493Z,64.15
2022-09-10T09:23:30.435Z,63.93
2022-09-10T09:24:30.437Z,64.84
2022-09-10T09:25:30.426Z,64.25
2022-09-10T09:26:30.418Z,63.13
2022-09-10T09:27:30.403Z,64.54
2022-09-10T09:28:30.390Z,63.35
2022-09-10T09:29:31.110Z,63.78
2022-09-10T09:30:30.370Z,65.37
2022-09-10T09:31:30.417Z,62.26
2022-09-10T09:32:30.393Z,64.02
2022-09-10T09:33:30.348Z,64.55
2022-09-10T09:34:31.110Z,61.03
2022-09-10T09:35:30.332Z,62.88
2022-09-10T09:36:30.323Z,64.86
2022-09-10T09:37:30.328Z,65.91
2022-09-10T09:38:30.311Z,66.53
2022-09-10T09:39:30.314Z,64.50
2022-09-10T09:40:30.294Z,63.76
2022-09-10T09:41:30.289Z,65.63
2022-09-10T09:42:30.285Z,62.85
2022-09-10T09:43:30.276Z,63.30
2022-09-10T09:44:30.264Z,61.23
2022-09-10T09:45:30.356Z,64.18
2022-09-10T09:46:30.253Z,60.83
2022-09-10T09:47:30.344Z,65.54
2022-09-10T09:48:30.238Z,62.97
2022-09-10T09:49:30.222Z,62.98
2022-09-10T09:50:30.208Z,61.51
2022-09-10T09:51:31.210Z,63.92
2022-09-10T09:52:30.207Z,66.03
2022-09-10T09:53:30.203Z,64.53
2022-09-10T09:55:12.572Z,63.84
2022-09-10T09:55:32.178Z,63.93
2022-09-10T09:56:30.196Z,63.90
2022-09-10T09:57:30.177Z,65.09
2022-09-10T09:58:30.156Z,63.30
2022-09-10T09:59:30.149Z,63.47
2022-09-10T10:00:30.146Z,64.70
2022-09-10T10:01:30.151Z,62.11
2022-09-10T10:02:30.156Z,63.64
2022-09-10T10:03:30.113Z,63.17
2022-09-10T10:04:30.114Z,63.48
2022-09-10T10:05:30.102Z,63.62
2022-09-10T10:06:30.101Z,63.36
2022-09-10T10:07:30.087Z,62.60
2022-09-10T10:08:30.085Z,62.33
2022-09-10T10:09:30.075Z,62.76
2022-09-10T10:10:30.060Z,62.44
2022-09-10T10:11:30.065Z,61.97
2022-09-10T10:12:30.039Z,63.55
2022-09-10T10:13:30.049Z,62.39
2022-09-10T10:14:30.029Z,62.94
2022-09-10T10:15:30.052Z,64.06
2022-09-10T10:16:30.024Z,62.80
2022-09-10T10:17:30.053Z,63.10
2022-09-10T10:18:29.999Z,63.96
2022-09-10T10:19:30.030Z,64.73
2022-09-10T10:20:29.980Z,66.76
2022-09-10T10:21:29.980Z,66.34
2022-09-10T10:22:29.976Z,63.54
2022-09-10T10:23:31.209Z,64.47
2022-09-10T10:24:30.952Z,63.99
2022-09-10T10:25:29.965Z,63.65
2022-09-10T10:26:29.954Z,64.54
2022-09-10T10:27:29.930Z,63.55
2022-09-10T10:28:29.928Z,61.44
2022-09-10T10:29:29.911Z,62.29
2022-09-10T10:30:29.911Z,64.05
2022-09-10T10:31:29.895Z,62.79
2022-09-10T10:32:29.888Z,64.67
2022-09-10T10:33:29.886Z,62.84
2022-09-10T10:34:29.874Z,62.11
2022-09-10T10:35:29.918Z,62.67
2022-09-10T10:36:29.862Z,62.97
2022-09-10T10:37:29.851Z,63.53
2022-09-10T10:38:29.841Z,63.65
2022-09-10T10:39:29.837Z,62.93
2022-09-10T10:40:29.830Z,61.91
2022-09-10T10:41:29.837Z,61.52
2022-09-10T10:42:30.709Z,64.94
2022-09-10T10:43:29.811Z,62.77
2022-09-10T10:44:29.797Z,62.10
2022-09-10T10:45:29.786Z,64.32
2022-09-10T10:46:29.816Z,61.62
2022-09-10T10:47:29.773Z,63.78
2022-09-10T10:48:29.759Z,63.04
2022-09-10T10:49:29.748Z,66.95
2022-09-10T10:50:29.740Z,64.20
2022-09-10T10:51:29.744Z,64.28
2022-09-10T10:52:29.735Z,63.68
2022-09-10T10:53:29.723Z,60.34
2022-09-10T10:54:29.716Z,64.26
2022-09-10T10:55:29.705Z,64.64
2022-09-10T10:56:29.710Z,63.06
2022-09-10T10:57:29.771Z,62.12
2022-09-10T10:58:29.683Z,62.23
2022-09-10T10:59:29.693Z,62.23
2022-09-10T11:00:29.664Z,66.41
2022-09-10T11:01:29.706Z,61.65
2022-09-10T11:02:29.684Z,64.62
2022-09-10T11:03:29.640Z,63.16
2022-09-10T11:04:29.639Z,60.44
2022-09-10T11:05:29.630Z,61.98
2022-09-10T11:06:29.633Z,63.72
2022-09-10T11:07:29.603Z,62.67
2022-09-10T11:08:29.598Z,62.52
2022-09-10T11:09:30.220Z,63.03
2022-09-10T11:10:29.591Z,61.52
2022-09-10T11:11:29.586Z,62.51
2022-09-10T11:12:29.566Z,59.38
2022-09-10T11:13:30.228Z,62.66
2022-09-10T11:14:29.574Z,62.34
2022-09-10T11:15:29.541Z,66.22
2022-09-10T11:16:29.534Z,64.82
2022-09-10T11:17:29.531Z,64.27
2022-09-10T11:18:29.523Z,64.19
2022-09-10T11:19:29.521Z,64.05
2022-09-10T11:20:30.265Z,63.73
2022-09-10T11:21:30.498Z,64.19
2022-09-10T11:22:29.499Z,62.51
2022-09-10T11:23:29.479Z,63.08
2022-09-10T11:24:29.491Z,61.80
2022-09-10T11:25:29.462Z,60.74
2022-09-10T11:26:29.459Z,61.66
2022-09-10T11:27:29.448Z,63.93
2022-09-10T11:28:29.441Z,64.26
2022-09-10T11:29:29.446Z,63.58
2022-09-10T11:30:29.436Z,65.02
2022-09-10T11:31:29.433Z,62.05
2022-09-10T11:32:29.412Z,62.72
2022-09-10T11:33:29.393Z,63.27
2022-09-10T11:34:29.400Z,61.88
2022-09-10T11:35:29.383Z,63.17
2022-09-10T11:36:29.371Z,62.54
2022-09-10T11:37:29.362Z,62.25
2022-09-10T11:38:29.356Z,61.21
2022-09-10T11:39:29.345Z,63.14
2022-09-10T11:40:29.377Z,61.07
2022-09-10T11:41:29.330Z,63.07
2022-09-10T11:42:29.329Z,63.08
2022-09-10T11:43:29.327Z,61.77
2022-09-10T11:44:32.355Z,61.90
2022-09-10T11:45:30.309Z,62.61
2022-09-10T11:46:30.303Z,59.59
2022-09-10T11:47:29.301Z,60.18
2022-09-10T11:48:33.293Z,62.97
2022-09-10T11:49:31.234Z,62.84
2022-09-10T11:50:34.539Z,61.01
2022-09-10T11:51:30.247Z,63.47
2022-09-10T11:52:29.427Z,61.41
2022-09-10T11:54:01.700Z,63.47
2022-09-10T11:54:29.223Z,62.09
2022-09-10T11:55:29.225Z,62.68
2022-09-10T11:56:29.208Z,63.92
2022-09-10T11:57:30.215Z,62.00
2022-09-10T11:58:29.202Z,61.96
2022-09-10T11:59:29.194Z,61.41
2022-09-10T12:00:29.181Z,63.58
2022-09-10T12:01:29.171Z,62.72
2022-09-10T12:02:29.226Z,63.18
2022-09-10T12:03:29.724Z,63.27
2022-09-10T12:04:29.178Z,60.89
2022-09-10T12:05:29.145Z,64.17
2022-09-10T12:06:29.131Z,65.02
2022-09-10T12:07:29.134Z,62.43
2022-09-10T12:08:29.118Z,63.33
2022-09-10T12:09:29.143Z,62.62
2022-09-10T12:10:29.106Z,62.92
2022-09-10T12:11:29.107Z,62.26
2022-09-10T12:12:29.084Z,62.90
2022-09-10T12:13:29.078Z,62.57
2022-09-10T12:14:29.108Z,61.00
2022-09-10T12:15:29.056Z,62.92
2022-09-10T12:16:29.056Z,62.29
2022-09-10T12:17:29.081Z,61.89
2022-09-10T12:18:29.057Z,63.06
2022-09-10T12:19:29.345Z,64.89
2022-09-10T12:20:29.020Z,64.93
2022-09-10T12:21:29.025Z,64.46
2022-09-10T12:22:29.007Z,63.36
2022-09-10T12:23:28.991Z,64.10
2022-09-10T12:24:28.993Z,63.04
2022-09-10T12:25:33.629Z,60.30
2022-09-10T12:26:30.972Z,60.18
2022-09-10T12:27:28.973Z,65.46
2022-09-10T12:28:29.768Z,59.83
2022-09-10T12:29:28.951Z,62.36
2022-09-10T12:30:28.938Z,66.44
2022-09-10T12:31:29.002Z,62.29
2022-09-10T12:32:28.929Z,60.83
2022-09-10T12:33:28.919Z,64.63
2022-09-10T12:34:28.908Z,64.12
2022-09-10T12:35:28.901Z,60.64
2022-09-10T12:36:28.900Z,61.05
2022-09-10T12:37:28.889Z,62.76
2022-09-10T12:38:28.883Z,62.40
2022-09-10T12:39:28.874Z,62.29
2022-09-10T12:40:28.863Z,61.25
2022-09-10T12:41:28.853Z,64.07
2022-09-10T12:42:28.860Z,61.53
2022-09-10T12:43:28.839Z,61.43
2022-09-10T12:44:28.837Z,63.57
2022-09-10T12:45:28.857Z,63.11
2022-09-10T12:46:28.866Z,63.29
2022-09-10T12:47:28.848Z,61.76
2022-09-10T12:48:28.800Z,61.73
2022-09-10T12:49:28.800Z,60.84
2022-09-10T12:50:28.803Z,64.18
2022-09-10T12:51:28.780Z,62.83
2022-09-10T12:52:29.294Z,64.11
2022-09-10T12:53:28.796Z,63.70
2022-09-10T12:54:28.758Z,63.16
2022-09-10T12:55:28.777Z,62.70